createdAt,value
2019-03-30T00:00:10.483Z,33.02
2019-03-30T00:00:36.779Z,33.11
2019-03-30T00:01:03.065Z,32.96
2019-03-30T00:01:29.379Z,32.88
2019-03-30T00:01:54.021Z,32.88
2019-03-30T00:02:18.651Z,33.01
2019-03-30T00:02:43.267Z,32.88
2019-03-30T00:03:07.937Z,32.93
2019-03-30T00:03:32.595Z,32.71
2019-03-30T00:03:57.318Z,32.91
2019-03-30T00:04:21.974Z,33.02
2019-03-30T00:04:46.623Z,33.08
2019-03-30T00:05:11.253Z,32.89
2019-03-30T00:05:36.176Z,32.75
2019-03-30T00:06:00.800Z,32.82
2019-03-30T00:06:25.414Z,32.87
2019-03-30T00:06:50.131Z,33.18
2019-03-30T00:07:14.754Z,33.07
2019-03-30T00:07:39.387Z,33.13
2019-03-30T00:08:04.371Z,32.92
2019-03-30T00:08:28.972Z,32.87
2019-03-30T00:08:53.594Z,33.09
2019-03-30T00:09:18.240Z,33.03
2019-03-30T00:09:42.846Z,33.28
2019-03-30T00:10:07.546Z,32.90
2019-03-30T00:10:32.163Z,33.01
2019-03-30T00:10:56.813Z,33.25
2019-03-30T00:11:21.437Z,32.96
2019-03-30T00:11:46.055Z,33.11
2019-03-30T00:12:10.791Z,32.99
2019-03-30T00:12:35.410Z,33.25
2019-03-30T00:13:00.160Z,33.13
2019-03-30T00:13:24.776Z,33.11
2019-03-30T00:13:49.747Z,33.24
2019-03-30T00:14:14.343Z,33.25
2019-03-30T00:14:38.984Z,33.21
2019-03-30T00:15:04.463Z,33.09
2019-03-30T00:15:29.108Z,33.19
2019-03-30T00:15:53.799Z,33.17
2019-03-30T00:16:18.415Z,33.27
2019-03-30T00:16:43.072Z,33.17
2019-03-30T00:17:07.684Z,33.36
2019-03-30T00:17:32.331Z,33.36
2019-03-30T00:17:56.946Z,33.26
2019-03-30T00:18:21.572Z,33.21
2019-03-30T00:18:46.263Z,33.06
2019-03-30T00:19:11.005Z,33.12
2019-03-30T00:19:35.640Z,33.17
2019-03-30T00:20:00.332Z,33.22
2019-03-30T00:20:24.958Z,33.20
2019-03-30T00:20:49.759Z,33.33
2019-03-30T00:21:14.424Z,33.31
2019-03-30T00:21:39.072Z,33.40
2019-03-30T00:22:03.700Z,33.27
2019-03-30T00:22:28.314Z,33.32
2019-03-30T00:22:52.939Z,33.36
2019-03-30T00:23:17.550Z,33.25
2019-03-30T00:23:42.227Z,33.28
2019-03-30T00:24:06.866Z,33.35
2019-03-30T00:24:31.602Z,33.13
2019-03-30T00:24:56.580Z,33.37
2019-03-30T00:25:21.204Z,33.31
2019-03-30T00:25:45.840Z,33.20
2019-03-30T00:26:10.505Z,33.46
2019-03-30T00:26:35.606Z,33.31
2019-03-30T00:27:00.211Z,33.40
2019-03-30T00:27:24.854Z,33.47
2019-03-30T00:27:49.478Z,33.16
2019-03-30T00:28:14.103Z,33.20
2019-03-30T00:28:38.768Z,33.35
2019-03-30T00:29:03.390Z,33.34
2019-03-30T00:29:28.117Z,33.47
2019-03-30T00:29:52.802Z,33.41
2019-03-30T00:30:19.142Z,33.43
2019-03-30T00:30:43.744Z,33.52
2019-03-30T00:31:08.378Z,33.57
2019-03-30T00:31:33.082Z,33.53
2019-03-30T00:31:57.826Z,33.38
2019-03-30T00:32:22.509Z,33.52
2019-03-30T00:32:47.212Z,33.44
2019-03-30T00:33:11.876Z,33.36
2019-03-30T00:33:36.520Z,33.72
2019-03-30T00:34:01.170Z,33.64
2019-03-30T00:34:25.806Z,33.52
2019-03-30T00:34:50.470Z,33.31
2019-03-30T00:35:15.143Z,33.39
2019-03-30T00:35:39.797Z,33.55
2019-03-30T00:36:04.452Z,33.63
2019-03-30T00:36:29.093Z,33.49
2019-03-30T00:36:53.746Z,33.68
2019-03-30T00:37:18.378Z,33.54
2019-03-30T00:37:43.038Z,33.65
2019-03-30T00:38:07.698Z,33.56
2019-03-30T00:38:32.378Z,33.58
2019-03-30T00:38:57.016Z,33.40
2019-03-30T00:39:21.652Z,33.48
2019-03-30T00:39:46.271Z,33.84
2019-03-30T00:40:10.890Z,33.73
2019-03-30T00:40:35.546Z,33.69
2019-03-30T00:41:00.200Z,33.72
2019-03-30T00:41:24.815Z,33.69
2019-03-30T00:41:49.467Z,33.68
2019-03-30T00:42:14.093Z,33.65
2019-03-30T00:42:38.815Z,33.71
2019-03-30T00:43:03.452Z,33.55
2019-03-30T00:43:28.111Z,33.66
2019-03-30T00:43:52.774Z,33.79
2019-03-30T00:44:17.412Z,33.74
2019-03-30T00:44:42.089Z,33.61
2019-03-30T00:45:07.676Z,33.78
2019-03-30T00:45:32.320Z,33.47
2019-03-30T00:45:57.242Z,33.70
2019-03-30T00:46:21.911Z,33.54
2019-03-30T00:46:46.544Z,33.72
2019-03-30T00:47:11.200Z,33.79
2019-03-30T00:47:35.834Z,33.84
2019-03-30T00:48:00.450Z,33.91
2019-03-30T00:48:25.110Z,33.70
2019-03-30T00:48:49.790Z,33.75
2019-03-30T00:49:14.426Z,33.75
2019-03-30T00:49:48.892Z,33.51
2019-03-30T00:50:06.114Z,33.89
2019-03-30T00:50:30.734Z,33.70
2019-03-30T00:50:55.385Z,33.56
2019-03-30T00:51:20.033Z,33.67
2019-03-30T00:51:44.658Z,33.88
2019-03-30T00:52:09.279Z,33.82
2019-03-30T00:52:33.909Z,33.80
2019-03-30T00:52:58.547Z,33.70
2019-03-30T00:53:23.194Z,33.68
2019-03-30T00:53:47.864Z,33.66
2019-03-30T00:54:13.454Z,33.60
2019-03-30T00:54:38.078Z,33.92
2019-03-30T00:55:02.716Z,33.83
2019-03-30T00:55:27.339Z,33.85
2019-03-30T00:55:52.059Z,33.80
2019-03-30T00:56:17.013Z,33.99
2019-03-30T00:56:41.701Z,33.77
2019-03-30T00:57:06.738Z,33.91
2019-03-30T00:57:31.386Z,33.95
2019-03-30T00:57:56.041Z,33.78
2019-03-30T00:58:20.653Z,33.70
2019-03-30T00:58:45.318Z,33.81
2019-03-30T00:59:09.951Z,33.97
2019-03-30T00:59:34.587Z,33.85
2019-03-30T00:59:59.352Z,34.07
2019-03-30T01:00:23.978Z,34.07
2019-03-30T01:00:48.778Z,33.95
2019-03-30T01:01:13.722Z,34.02
2019-03-30T01:01:38.650Z,33.96
2019-03-30T01:02:03.365Z,33.80
2019-03-30T01:02:27.959Z,34.07
2019-03-30T01:02:52.592Z,33.95
2019-03-30T01:03:17.239Z,33.92
2019-03-30T01:03:41.870Z,33.96
2019-03-30T01:04:06.592Z,33.99
2019-03-30T01:04:31.210Z,34.04
2019-03-30T01:04:55.844Z,34.12
2019-03-30T01:05:20.488Z,33.80
2019-03-30T01:05:45.114Z,34.12
2019-03-30T01:06:09.768Z,34.20
2019-03-30T01:06:34.379Z,34.05
2019-03-30T01:06:59.024Z,34.15
2019-03-30T01:07:23.634Z,34.20
2019-03-30T01:07:48.298Z,33.98
2019-03-30T01:08:13.756Z,33.91
2019-03-30T01:08:38.389Z,33.97
2019-03-30T01:09:03.736Z,34.12
2019-03-30T01:09:28.360Z,34.13
2019-03-30T01:09:53.334Z,33.97
2019-03-30T01:10:17.966Z,34.19
2019-03-30T01:10:42.609Z,34.05
2019-03-30T01:11:07.315Z,33.68
2019-03-30T01:11:31.929Z,33.97
2019-03-30T01:11:56.552Z,34.01
2019-03-30T01:12:21.174Z,34.14
2019-03-30T01:12:45.921Z,34.10
2019-03-30T01:13:10.575Z,34.17
2019-03-30T01:13:35.190Z,33.88
2019-03-30T01:13:59.912Z,34.13
2019-03-30T01:14:24.950Z,34.03
2019-03-30T01:14:49.556Z,34.10
2019-03-30T01:15:14.406Z,34.24
2019-03-30T01:15:39.086Z,34.26
2019-03-30T01:16:03.713Z,34.00
2019-03-30T01:16:28.324Z,34.22
2019-03-30T01:16:53.060Z,34.21
2019-03-30T01:17:17.694Z,34.06
2019-03-30T01:17:42.324Z,34.12
2019-03-30T01:18:07.078Z,34.02
2019-03-30T01:18:31.697Z,34.12
2019-03-30T01:18:56.400Z,34.27
2019-03-30T01:19:21.030Z,34.13
2019-03-30T01:19:45.679Z,34.14
2019-03-30T01:20:10.298Z,34.19
2019-03-30T01:20:34.923Z,34.21
2019-03-30T01:20:59.602Z,34.28
2019-03-30T01:21:24.218Z,34.27
2019-03-30T01:21:48.842Z,34.30
2019-03-30T01:22:13.754Z,34.25
2019-03-30T01:22:38.463Z,34.34
2019-03-30T01:23:03.097Z,34.34
2019-03-30T01:23:27.754Z,34.44
2019-03-30T01:23:52.388Z,34.26
2019-03-30T01:24:17.012Z,34.23
2019-03-30T01:24:41.638Z,34.38
2019-03-30T01:25:07.634Z,34.53
2019-03-30T01:25:32.262Z,34.25
2019-03-30T01:25:56.901Z,34.24
2019-03-30T01:26:21.535Z,34.33
2019-03-30T01:26:46.204Z,34.21
2019-03-30T01:27:10.866Z,34.42
2019-03-30T01:27:35.533Z,34.31
2019-03-30T01:28:00.157Z,34.37
2019-03-30T01:28:24.791Z,34.09
2019-03-30T01:28:49.427Z,34.06
2019-03-30T01:29:14.067Z,34.27
2019-03-30T01:29:38.715Z,34.25
2019-03-30T01:30:04.410Z,34.41
2019-03-30T01:30:29.001Z,34.28
2019-03-30T01:30:53.762Z,34.30
2019-03-30T01:31:20.338Z,34.20
2019-03-30T01:31:44.966Z,34.20
2019-03-30T01:32:09.605Z,34.27
2019-03-30T01:32:35.097Z,34.46
2019-03-30T01:32:59.917Z,34.16
2019-03-30T01:33:24.589Z,34.38
2019-03-30T01:33:49.254Z,34.31
2019-03-30T01:34:13.913Z,34.38
2019-03-30T01:34:38.517Z,34.49
2019-03-30T01:35:03.369Z,34.38
2019-03-30T01:35:28.180Z,34.33
2019-03-30T01:35:52.891Z,34.56
2019-03-30T01:36:18.002Z,34.58
2019-03-30T01:36:42.630Z,34.57
2019-03-30T01:37:07.274Z,34.61
2019-03-30T01:37:32.046Z,34.46
2019-03-30T01:37:56.693Z,34.55
2019-03-30T01:38:21.338Z,34.60
2019-03-30T01:38:45.963Z,34.66
2019-03-30T01:39:10.797Z,34.54
2019-03-30T01:39:35.473Z,34.61
2019-03-30T01:40:00.157Z,34.61
2019-03-30T01:40:38.324Z,34.57
2019-03-30T01:41:02.946Z,34.67
2019-03-30T01:41:27.575Z,34.66
2019-03-30T01:41:52.202Z,34.54
2019-03-30T01:42:16.823Z,34.54
2019-03-30T01:42:41.464Z,34.48
2019-03-30T01:43:06.092Z,34.17
2019-03-30T01:43:30.784Z,34.51
2019-03-30T01:43:55.411Z,34.56
2019-03-30T01:44:20.065Z,34.38
2019-03-30T01:44:44.692Z,34.49
2019-03-30T01:45:09.369Z,34.41
2019-03-30T01:45:34.027Z,34.38
2019-03-30T01:45:58.633Z,34.52
2019-03-30T01:46:23.262Z,34.63
2019-03-30T01:46:48.146Z,34.76
2019-03-30T01:47:13.825Z,34.65
2019-03-30T01:47:38.478Z,34.51
2019-03-30T01:48:03.194Z,34.58
2019-03-30T01:48:27.880Z,34.60
2019-03-30T01:48:52.548Z,34.58
2019-03-30T01:49:17.175Z,34.53
2019-03-30T01:49:42.135Z,34.61
2019-03-30T01:50:17.243Z,34.55
2019-03-30T01:50:34.918Z,34.84
2019-03-30T01:50:59.530Z,34.79
2019-03-30T01:51:24.186Z,34.60
2019-03-30T01:51:48.808Z,34.67
2019-03-30T01:52:13.854Z,34.81
2019-03-30T01:52:38.461Z,34.66
2019-03-30T01:53:03.178Z,34.75
2019-03-30T01:53:27.789Z,34.79
2019-03-30T01:53:52.451Z,34.85
2019-03-30T01:54:17.076Z,34.83
2019-03-30T01:54:41.789Z,34.89
2019-03-30T01:55:07.757Z,34.70
2019-03-30T01:55:32.412Z,34.92
2019-03-30T01:55:57.044Z,34.64
2019-03-30T01:56:21.688Z,34.81
2019-03-30T01:56:46.313Z,34.62
2019-03-30T01:57:10.964Z,34.87
2019-03-30T01:57:35.551Z,34.84
2019-03-30T01:58:00.176Z,34.71
2019-03-30T01:58:24.893Z,34.76
2019-03-30T01:58:49.507Z,34.57
2019-03-30T01:59:14.152Z,34.63
2019-03-30T01:59:38.782Z,34.78
2019-03-30T02:00:04.754Z,34.81
2019-03-30T02:00:29.378Z,34.64
2019-03-30T02:00:54.009Z,34.90
2019-03-30T02:01:18.633Z,34.93
2019-03-30T02:01:43.289Z,34.84
2019-03-30T02:02:07.895Z,34.72
2019-03-30T02:02:32.554Z,34.98
2019-03-30T02:02:57.196Z,34.80
2019-03-30T02:03:21.892Z,34.87
2019-03-30T02:03:46.554Z,35.00
2019-03-30T02:04:11.181Z,34.91
2019-03-30T02:04:35.806Z,34.76
2019-03-30T02:05:00.496Z,34.80
2019-03-30T02:05:25.157Z,34.79
2019-03-30T02:05:49.819Z,34.92
2019-03-30T02:06:14.461Z,34.99
2019-03-30T02:06:39.101Z,35.05
2019-03-30T02:07:03.734Z,34.98
2019-03-30T02:07:28.353Z,34.97
2019-03-30T02:07:52.985Z,34.99
2019-03-30T02:08:17.693Z,34.95
2019-03-30T02:08:42.435Z,35.08
2019-03-30T02:09:07.063Z,35.05
2019-03-30T02:09:31.699Z,35.05
2019-03-30T02:09:56.306Z,35.00
2019-03-30T02:10:36.474Z,34.82
2019-03-30T02:11:01.085Z,35.04
2019-03-30T02:11:25.776Z,34.76
2019-03-30T02:11:50.422Z,34.90
2019-03-30T02:12:15.134Z,34.90
2019-03-30T02:12:39.809Z,34.98
2019-03-30T02:13:04.545Z,34.70
2019-03-30T02:13:29.195Z,34.88
2019-03-30T02:13:53.776Z,35.09
2019-03-30T02:14:18.408Z,34.98
2019-03-30T02:14:43.054Z,35.02
2019-03-30T02:15:07.882Z,35.12
2019-03-30T02:15:32.519Z,35.08
2019-03-30T02:15:57.172Z,35.11
2019-03-30T02:16:21.813Z,35.01
2019-03-30T02:16:46.435Z,35.12
2019-03-30T02:17:11.103Z,35.16
2019-03-30T02:17:35.723Z,35.07
2019-03-30T02:18:00.357Z,35.00
2019-03-30T02:18:25.244Z,35.08
2019-03-30T02:18:49.861Z,34.79
2019-03-30T02:19:14.529Z,34.80
2019-03-30T02:19:39.157Z,34.75
2019-03-30T02:20:06.318Z,35.03
2019-03-30T02:20:38.436Z,35.11
2019-03-30T02:21:03.138Z,35.20
2019-03-30T02:21:27.751Z,35.11
2019-03-30T02:21:52.376Z,35.29
2019-03-30T02:22:17.091Z,35.06
2019-03-30T02:22:41.804Z,34.99
2019-03-30T02:23:06.857Z,35.07
2019-03-30T02:23:31.501Z,35.23
2019-03-30T02:23:56.155Z,35.22
2019-03-30T02:24:20.774Z,34.98
2019-03-30T02:24:45.416Z,34.77
2019-03-30T02:25:10.051Z,35.13
2019-03-30T02:25:34.693Z,35.18
2019-03-30T02:25:59.328Z,35.13
2019-03-30T02:26:23.995Z,35.15
2019-03-30T02:26:48.645Z,35.19
2019-03-30T02:27:13.272Z,35.01
2019-03-30T02:27:37.893Z,35.11
2019-03-30T02:28:02.521Z,35.26
2019-03-30T02:28:27.191Z,35.04
2019-03-30T02:28:51.809Z,34.94
2019-03-30T02:29:16.570Z,35.30
2019-03-30T02:29:41.203Z,35.22
2019-03-30T02:30:07.107Z,35.13
2019-03-30T02:30:31.758Z,35.07
2019-03-30T02:30:56.412Z,35.25
2019-03-30T02:31:21.038Z,35.02
2019-03-30T02:31:47.345Z,35.16
2019-03-30T02:32:12.826Z,35.08
2019-03-30T02:32:37.433Z,35.25
2019-03-30T02:33:02.070Z,35.28
2019-03-30T02:33:26.689Z,35.47
2019-03-30T02:33:51.331Z,35.31
2019-03-30T02:34:15.958Z,35.10
2019-03-30T02:34:40.955Z,35.19
2019-03-30T02:35:06.792Z,35.26
2019-03-30T02:35:31.455Z,35.15
2019-03-30T02:35:56.079Z,35.29
2019-03-30T02:36:20.718Z,35.25
2019-03-30T02:36:45.476Z,35.33
2019-03-30T02:37:10.087Z,35.16
2019-03-30T02:37:34.781Z,35.43
2019-03-30T02:37:59.495Z,35.34
2019-03-30T02:38:24.161Z,35.55
2019-03-30T02:38:48.780Z,35.41
2019-03-30T02:39:13.393Z,35.43
2019-03-30T02:39:38.066Z,35.44
2019-03-30T02:40:02.701Z,35.26
2019-03-30T02:40:27.325Z,35.25
2019-03-30T02:40:51.973Z,35.42
2019-03-30T02:41:16.619Z,35.49
2019-03-30T02:41:41.289Z,35.26
2019-03-30T02:42:05.936Z,35.30
2019-03-30T02:42:30.599Z,35.37
2019-03-30T02:42:55.221Z,35.48
2019-03-30T02:43:19.922Z,35.52
2019-03-30T02:43:44.569Z,35.45
2019-03-30T02:44:09.211Z,35.45
2019-03-30T02:44:33.866Z,35.43
2019-03-30T02:44:58.495Z,35.41
2019-03-30T02:45:23.149Z,35.30
2019-03-30T02:45:47.784Z,35.45
2019-03-30T02:46:12.870Z,35.27
2019-03-30T02:46:37.486Z,35.42
2019-03-30T02:47:02.180Z,35.43
2019-03-30T02:47:28.433Z,35.49
2019-03-30T02:47:53.089Z,35.46
2019-03-30T02:48:17.714Z,35.52
2019-03-30T02:48:42.441Z,35.50
2019-03-30T02:49:07.041Z,35.38
2019-03-30T02:49:31.777Z,35.53
2019-03-30T02:49:56.404Z,35.42
2019-03-30T02:50:21.086Z,35.45
2019-03-30T02:50:49.845Z,35.21
2019-03-30T02:51:12.973Z,35.50
2019-03-30T02:51:37.600Z,35.39
2019-03-30T02:52:02.256Z,35.59
2019-03-30T02:52:27.150Z,35.47
2019-03-30T02:52:51.779Z,35.38
2019-03-30T02:53:16.448Z,35.19
2019-03-30T02:53:41.060Z,35.49
2019-03-30T02:54:05.703Z,35.49
2019-03-30T02:54:30.345Z,35.42
2019-03-30T02:54:54.988Z,35.50
2019-03-30T02:55:19.604Z,35.25
2019-03-30T02:55:44.339Z,35.50
2019-03-30T02:56:08.942Z,35.67
2019-03-30T02:56:33.618Z,35.73
2019-03-30T02:56:58.232Z,35.51
2019-03-30T02:57:22.862Z,35.36
2019-03-30T02:57:47.591Z,35.64
2019-03-30T02:58:12.914Z,35.29
2019-03-30T02:58:37.538Z,35.54
2019-03-30T02:59:02.150Z,35.58
2019-03-30T02:59:26.808Z,35.57
2019-03-30T02:59:51.488Z,35.52
2019-03-30T03:00:16.926Z,35.42
2019-03-30T03:00:41.714Z,35.55
2019-03-30T03:01:06.328Z,35.63
2019-03-30T03:01:30.954Z,35.53
2019-03-30T03:01:55.554Z,35.48
2019-03-30T03:02:20.184Z,35.68
2019-03-30T03:02:44.818Z,35.42
2019-03-30T03:03:09.472Z,35.77
2019-03-30T03:03:34.140Z,35.60
2019-03-30T03:03:58.783Z,35.57
2019-03-30T03:04:23.476Z,35.57
2019-03-30T03:04:48.094Z,35.65
2019-03-30T03:05:13.167Z,35.60
2019-03-30T03:05:37.808Z,35.40
2019-03-30T03:06:02.421Z,35.59
2019-03-30T03:06:27.099Z,35.61
2019-03-30T03:06:51.795Z,35.49
2019-03-30T03:07:16.424Z,35.68
2019-03-30T03:07:41.081Z,35.74
2019-03-30T03:08:05.713Z,35.72
2019-03-30T03:08:30.355Z,35.73
2019-03-30T03:08:54.961Z,35.93
2019-03-30T03:09:19.645Z,35.88
2019-03-30T03:09:44.344Z,35.79
2019-03-30T03:10:09.040Z,35.69
2019-03-30T03:10:33.682Z,35.81
2019-03-30T03:10:58.305Z,35.65
2019-03-30T03:11:22.970Z,35.68
2019-03-30T03:11:47.585Z,35.72
2019-03-30T03:12:12.205Z,35.75
2019-03-30T03:12:36.857Z,35.74
2019-03-30T03:13:01.545Z,35.69
2019-03-30T03:13:26.264Z,35.64
2019-03-30T03:13:50.903Z,35.69
2019-03-30T03:14:15.509Z,35.47
2019-03-30T03:14:40.122Z,35.64
2019-03-30T03:15:06.484Z,35.59
2019-03-30T03:15:31.107Z,35.74
2019-03-30T03:15:55.828Z,35.67
2019-03-30T03:16:20.462Z,35.74
2019-03-30T03:16:45.088Z,35.78
2019-03-30T03:17:09.866Z,35.62
2019-03-30T03:17:34.474Z,35.45
2019-03-30T03:17:59.116Z,35.65
2019-03-30T03:18:23.779Z,35.82
2019-03-30T03:18:48.389Z,35.72
2019-03-30T03:19:13.441Z,35.56
2019-03-30T03:19:38.080Z,35.72
2019-03-30T03:20:02.738Z,35.82
2019-03-30T03:20:27.338Z,35.74
2019-03-30T03:21:06.624Z,35.73
2019-03-30T03:21:18.357Z,35.67
2019-03-30T03:21:42.955Z,35.71
2019-03-30T03:22:07.577Z,35.74
2019-03-30T03:22:32.213Z,35.75
2019-03-30T03:22:56.869Z,35.88
2019-03-30T03:23:21.479Z,35.80
2019-03-30T03:23:46.161Z,35.75
2019-03-30T03:24:10.777Z,35.58
2019-03-30T03:24:35.411Z,35.71
2019-03-30T03:25:00.037Z,35.83
2019-03-30T03:25:24.836Z,35.75
2019-03-30T03:25:49.490Z,35.76
2019-03-30T03:26:14.120Z,35.72
2019-03-30T03:26:38.745Z,35.78
2019-03-30T03:27:03.364Z,35.88
2019-03-30T03:27:28.005Z,35.89
2019-03-30T03:27:52.646Z,35.84
2019-03-30T03:28:17.275Z,35.79
2019-03-30T03:28:41.924Z,35.70
2019-03-30T03:29:06.585Z,35.79
2019-03-30T03:29:31.245Z,35.69
2019-03-30T03:29:55.859Z,35.73
2019-03-30T03:30:20.493Z,35.80
2019-03-30T03:30:45.135Z,35.64
2019-03-30T03:31:09.763Z,35.76
2019-03-30T03:31:34.418Z,35.80
2019-03-30T03:31:59.060Z,35.83
2019-03-30T03:32:23.972Z,35.86
2019-03-30T03:32:48.626Z,35.76
2019-03-30T03:33:13.475Z,35.86
2019-03-30T03:33:38.109Z,35.72
2019-03-30T03:34:02.783Z,35.45
2019-03-30T03:34:27.449Z,35.62
2019-03-30T03:34:52.096Z,35.72
2019-03-30T03:35:16.693Z,35.70
2019-03-30T03:35:41.314Z,35.71
2019-03-30T03:36:05.951Z,35.79
2019-03-30T03:36:30.605Z,35.74
2019-03-30T03:36:55.259Z,35.76
2019-03-30T03:37:19.947Z,35.77
2019-03-30T03:37:46.446Z,35.89
2019-03-30T03:38:10.992Z,35.91
2019-03-30T03:38:35.590Z,35.72
2019-03-30T03:39:00.414Z,35.85
2019-03-30T03:39:25.105Z,35.64
2019-03-30T03:39:49.757Z,35.94
2019-03-30T03:40:14.405Z,35.81
2019-03-30T03:40:39.049Z,35.77
2019-03-30T03:41:03.696Z,35.88
2019-03-30T03:41:28.338Z,35.85
2019-03-30T03:41:52.984Z,35.84
2019-03-30T03:42:17.607Z,35.78
2019-03-30T03:42:42.229Z,35.73
2019-03-30T03:43:06.878Z,35.88
2019-03-30T03:43:31.520Z,35.76
2019-03-30T03:43:56.174Z,35.81
2019-03-30T03:44:20.802Z,35.74
2019-03-30T03:44:45.425Z,35.94
2019-03-30T03:45:10.083Z,35.81
2019-03-30T03:45:34.696Z,35.63
2019-03-30T03:45:59.414Z,35.73
2019-03-30T03:46:24.126Z,35.88
2019-03-30T03:46:48.846Z,35.76
2019-03-30T03:47:13.556Z,35.86
2019-03-30T03:47:38.199Z,35.86
2019-03-30T03:48:02.848Z,35.80
2019-03-30T03:48:27.465Z,35.86
2019-03-30T03:48:52.124Z,35.84
2019-03-30T03:49:16.762Z,35.94
2019-03-30T03:49:41.388Z,35.83
2019-03-30T03:50:07.058Z,35.75
2019-03-30T03:50:45.488Z,35.86
2019-03-30T03:51:25.034Z,35.82
2019-03-30T03:51:36.487Z,36.05
2019-03-30T03:52:01.104Z,35.92
2019-03-30T03:52:25.748Z,35.97
2019-03-30T03:52:50.391Z,36.00
2019-03-30T03:53:15.670Z,35.85
2019-03-30T03:53:40.371Z,35.88
2019-03-30T03:54:05.033Z,35.80
2019-03-30T03:54:30.056Z,35.87
2019-03-30T03:54:54.700Z,35.96
2019-03-30T03:55:19.338Z,36.02
2019-03-30T03:55:43.969Z,35.90
2019-03-30T03:56:08.624Z,35.94
2019-03-30T03:56:33.317Z,35.96
2019-03-30T03:56:57.995Z,35.89
2019-03-30T03:57:22.712Z,35.88
2019-03-30T03:57:47.355Z,35.96
2019-03-30T03:58:12.502Z,36.05
2019-03-30T03:58:37.194Z,36.07
2019-03-30T03:59:01.893Z,35.99
2019-03-30T03:59:27.495Z,35.94
2019-03-30T03:59:52.122Z,35.80
2019-03-30T04:00:16.785Z,35.89
2019-03-30T04:00:41.359Z,35.93
2019-03-30T04:01:06.006Z,35.97
2019-03-30T04:01:31.304Z,35.80
2019-03-30T04:01:56.191Z,36.03
2019-03-30T04:02:20.841Z,36.03
2019-03-30T04:02:45.470Z,35.81
2019-03-30T04:03:11.456Z,36.08
2019-03-30T04:03:36.063Z,36.02
2019-03-30T04:04:00.681Z,35.93
2019-03-30T04:04:27.375Z,35.92
2019-03-30T04:04:52.026Z,35.93
2019-03-30T04:05:16.654Z,36.03
2019-03-30T04:05:44.451Z,35.98
2019-03-30T04:06:09.090Z,35.91
2019-03-30T04:06:33.934Z,35.98
2019-03-30T04:07:01.745Z,36.04
2019-03-30T04:07:26.381Z,36.04
2019-03-30T04:07:50.981Z,35.97
2019-03-30T04:08:15.880Z,36.12
2019-03-30T04:08:40.513Z,36.05
2019-03-30T04:09:06.103Z,36.03
2019-03-30T04:09:32.593Z,36.00
2019-03-30T04:09:57.762Z,36.21
2019-03-30T04:10:22.390Z,36.10
2019-03-30T04:10:49.459Z,35.96
2019-03-30T04:11:14.441Z,36.08
2019-03-30T04:11:39.096Z,36.08
2019-03-30T04:12:04.584Z,36.17
2019-03-30T04:12:29.195Z,36.19
2019-03-30T04:12:53.928Z,36.11
2019-03-30T04:13:18.541Z,36.03
2019-03-30T04:13:43.170Z,36.22
2019-03-30T04:14:08.226Z,36.17
2019-03-30T04:14:32.845Z,36.17
2019-03-30T04:14:57.606Z,36.33
2019-03-30T04:15:25.267Z,36.23
2019-03-30T04:15:49.964Z,36.22
2019-03-30T04:16:14.584Z,36.01
2019-03-30T04:16:39.303Z,36.16
2019-03-30T04:17:03.926Z,36.16
2019-03-30T04:17:28.555Z,36.13
2019-03-30T04:17:53.203Z,36.17
2019-03-30T04:18:17.966Z,36.13
2019-03-30T04:18:42.614Z,36.15
2019-03-30T04:19:07.327Z,36.30
2019-03-30T04:19:31.949Z,36.19
2019-03-30T04:19:56.612Z,36.19
2019-03-30T04:20:24.477Z,36.03
2019-03-30T04:20:49.187Z,36.23
2019-03-30T04:21:13.827Z,36.12
2019-03-30T04:21:44.338Z,36.16
2019-03-30T04:22:05.004Z,36.19
2019-03-30T04:22:29.624Z,36.19
2019-03-30T04:22:54.546Z,36.01
2019-03-30T04:23:19.232Z,36.11
2019-03-30T04:23:43.884Z,36.21
2019-03-30T04:24:08.523Z,36.12
2019-03-30T04:24:33.170Z,36.18
2019-03-30T04:24:57.779Z,36.14
2019-03-30T04:25:23.024Z,36.00
2019-03-30T04:25:47.733Z,36.11
2019-03-30T04:26:13.409Z,36.09
2019-03-30T04:26:39.709Z,36.20
2019-03-30T04:27:04.526Z,36.15
2019-03-30T04:27:29.135Z,36.29
2019-03-30T04:27:53.781Z,36.14
2019-03-30T04:28:18.434Z,36.13
2019-03-30T04:28:43.049Z,36.12
2019-03-30T04:29:07.710Z,36.29
2019-03-30T04:29:32.349Z,36.30
2019-03-30T04:29:57.067Z,36.35
2019-03-30T04:30:21.720Z,36.34
2019-03-30T04:30:46.339Z,36.49
2019-03-30T04:31:10.978Z,36.29
2019-03-30T04:31:35.609Z,36.14
2019-03-30T04:32:00.268Z,36.20
2019-03-30T04:32:24.929Z,36.43
2019-03-30T04:32:49.563Z,36.27
2019-03-30T04:33:14.162Z,36.17
2019-03-30T04:33:38.804Z,36.26
2019-03-30T04:34:03.513Z,36.30
2019-03-30T04:34:28.136Z,36.26
2019-03-30T04:34:52.790Z,36.30
2019-03-30T04:35:17.614Z,36.28
2019-03-30T04:35:42.231Z,36.15
2019-03-30T04:36:06.869Z,36.29
2019-03-30T04:36:31.485Z,36.29
2019-03-30T04:36:56.112Z,36.26
2019-03-30T04:37:20.821Z,36.17
2019-03-30T04:37:45.447Z,36.23
2019-03-30T04:38:14.089Z,36.28
2019-03-30T04:38:36.651Z,36.35
2019-03-30T04:39:01.563Z,36.37
2019-03-30T04:39:26.212Z,36.21
2019-03-30T04:39:50.937Z,36.28
2019-03-30T04:40:15.557Z,36.28
2019-03-30T04:40:40.189Z,36.39
2019-03-30T04:41:04.817Z,36.35
2019-03-30T04:41:29.485Z,36.17
2019-03-30T04:41:54.092Z,36.31
2019-03-30T04:42:18.733Z,36.05
2019-03-30T04:42:43.446Z,36.36
2019-03-30T04:43:08.491Z,36.22
2019-03-30T04:43:33.069Z,36.45
2019-03-30T04:43:57.822Z,36.13
2019-03-30T04:44:22.419Z,36.17
2019-03-30T04:44:47.050Z,36.24
2019-03-30T04:45:11.696Z,36.22
2019-03-30T04:45:36.314Z,36.21
2019-03-30T04:46:00.964Z,36.28
2019-03-30T04:46:25.581Z,36.24
2019-03-30T04:46:50.218Z,36.38
2019-03-30T04:47:14.839Z,36.32
2019-03-30T04:47:39.473Z,36.36
2019-03-30T04:48:04.100Z,36.28
2019-03-30T04:48:29.631Z,36.34
2019-03-30T04:48:54.423Z,36.32
2019-03-30T04:49:19.040Z,36.29
2019-03-30T04:49:43.660Z,36.44
2019-03-30T04:50:08.294Z,36.32
2019-03-30T04:50:32.918Z,36.35
2019-03-30T04:50:57.644Z,36.34
2019-03-30T04:51:22.264Z,36.24
2019-03-30T04:51:57.574Z,36.28
2019-03-30T04:52:13.363Z,36.36
2019-03-30T04:52:38.005Z,36.36
2019-03-30T04:53:02.706Z,36.25
2019-03-30T04:53:27.481Z,36.35
2019-03-30T04:53:52.120Z,36.26
2019-03-30T04:54:16.792Z,36.31
2019-03-30T04:54:41.403Z,36.30
2019-03-30T04:55:07.114Z,36.29
2019-03-30T04:55:31.756Z,36.28
2019-03-30T04:55:56.471Z,36.32
2019-03-30T04:56:21.155Z,36.35
2019-03-30T04:56:45.797Z,36.14
2019-03-30T04:57:10.444Z,36.32
2019-03-30T04:57:35.061Z,36.39
2019-03-30T04:57:59.775Z,36.21
2019-03-30T04:58:24.443Z,36.31
2019-03-30T04:58:49.137Z,36.32
2019-03-30T04:59:13.801Z,36.40
2019-03-30T04:59:38.434Z,36.23
2019-03-30T05:00:03.711Z,36.27
2019-03-30T05:00:28.355Z,36.32
2019-03-30T05:00:52.984Z,36.18
2019-03-30T05:01:17.707Z,36.33
2019-03-30T05:01:42.326Z,36.42
2019-03-30T05:02:06.967Z,36.35
2019-03-30T05:02:31.614Z,36.36
2019-03-30T05:02:56.318Z,36.42
2019-03-30T05:03:20.940Z,36.33
2019-03-30T05:03:45.748Z,36.25
2019-03-30T05:04:10.395Z,36.47
2019-03-30T05:04:35.100Z,36.49
2019-03-30T05:04:59.714Z,36.52
2019-03-30T05:05:24.387Z,36.24
2019-03-30T05:05:49.075Z,36.39
2019-03-30T05:06:13.704Z,36.32
2019-03-30T05:06:38.460Z,36.34
2019-03-30T05:07:03.184Z,36.18
2019-03-30T05:07:27.839Z,36.32
2019-03-30T05:07:52.466Z,36.23
2019-03-30T05:08:17.100Z,36.43
2019-03-30T05:08:41.748Z,36.57
2019-03-30T05:09:06.684Z,36.27
2019-03-30T05:09:31.304Z,36.35
2019-03-30T05:09:56.062Z,36.31
2019-03-30T05:10:20.686Z,36.40
2019-03-30T05:10:45.418Z,36.32
2019-03-30T05:11:10.104Z,36.46
2019-03-30T05:11:34.876Z,36.24
2019-03-30T05:11:59.501Z,36.28
2019-03-30T05:12:24.124Z,36.26
2019-03-30T05:12:48.828Z,36.26
2019-03-30T05:13:13.678Z,36.48
2019-03-30T05:13:38.307Z,36.38
2019-03-30T05:14:03.047Z,36.41
2019-03-30T05:14:27.762Z,36.28
2019-03-30T05:14:52.368Z,36.39
2019-03-30T05:15:17.042Z,36.33
2019-03-30T05:15:41.684Z,36.43
2019-03-30T05:16:06.306Z,36.30
2019-03-30T05:16:30.917Z,36.42
2019-03-30T05:16:55.630Z,36.32
2019-03-30T05:17:20.272Z,36.40
2019-03-30T05:17:47.792Z,36.20
2019-03-30T05:18:11.359Z,36.33
2019-03-30T05:18:35.994Z,36.30
2019-03-30T05:19:00.612Z,36.34
2019-03-30T05:19:25.267Z,36.35
2019-03-30T05:19:49.941Z,36.18